Time;durP1;ratioP1;P1;durP2;ratioP2;P2;SDS_P1;SDS_P2;PMS_P1;PMS_P2;Temp;Humidity;BMP_temperature;BMP_pressure;BME280_temperature;BME280_humidity;BME280_pressure;Samples;Min_cycle;Max_cycle;Signal;HPM_P1;HPM_P2
2022/01/06 00:02:14;;;;;;;29.65;16.35;;;;;;;;;;5053561;28;20041;-77
2022/01/06 00:04:59;;;;;;;39.85;21.85;;;;;;;;;;5018039;28;20049;-79
2022/01/06 00:07:45;;;;;;;94.32;42.00;;;;;;;;;;5046123;28;20036;-79
2022/01/06 00:10:31;;;;;;;106.65;51.53;;;;;;;;;;5047065;28;20053;-79
2022/01/06 00:13:25;;;;;;;108.50;49.40;;;;;;;;;;5055266;28;20037;-80
2022/01/06 00:16:24;;;;;;;124.93;59.15;;;;;;;;;;5055325;28;20052;-79
2022/01/06 00:24:58;;;;;;;198.02;95.03;;;;;;;;;;5054883;28;20041;-79
2022/01/06 00:27:43;;;;;;;202.85;97.65;;;;;;;;;;5061588;28;20048;-78
2022/01/06 00:30:28;;;;;;;194.73;97.30;;;;;;;;;;5061200;28;20480;-80
2022/01/06 00:33:14;;;;;;;214.00;103.75;;;;;;;;;;5061643;28;20080;-80
2022/01/06 00:36:00;;;;;;;226.45;109.90;;;;;;;;;;5054487;28;20162;-79
2022/01/06 00:38:45;;;;;;;240.55;111.88;;;;;;;;;;5058704;28;20053;-79
2022/01/06 00:41:33;;;;;;;227.68;108.80;;;;;;;;;;5054774;28;20041;-80
2022/01/06 00:44:18;;;;;;;251.07;120.75;;;;;;;;;;5061258;28;20044;-80
2022/01/06 00:47:03;;;;;;;221.60;103.03;;;;;;;;;;5054264;28;20045;-80
2022/01/06 00:49:48;;;;;;;166.63;74.78;;;;;;;;;;5060932;28;20049;-79
2022/01/06 00:52:34;;;;;;;135.07;60.08;;;;;;;;;;5054360;28;20049;-80
2022/01/06 00:55:19;;;;;;;199.82;92.60;;;;;;;;;;5045916;28;20048;-80
2022/01/06 00:58:04;;;;;;;170.35;76.47;;;;;;;;;;5053588;28;20475;-80
2022/01/06 01:00:50;;;;;;;166.60;80.25;;;;;;;;;;5060889;28;20049;-80
2022/01/06 01:03:35;;;;;;;198.27;93.25;;;;;;;;;;5045619;28;20049;-80
2022/01/06 01:06:21;;;;;;;191.43;81.28;;;;;;;;;;5054210;28;20487;-79
2022/01/06 01:09:06;;;;;;;184.55;77.78;;;;;;;;;;5060656;28;20045;-79
2022/01/06 01:11:53;;;;;;;146.27;66.80;;;;;;;;;;5060061;28;20045;-79
2022/01/06 01:14:53;;;;;;;139.50;67.30;;;;;;;;;;5039356;28;20045;-80
2022/01/06 01:17:40;;;;;;;172.15;80.80;;;;;;;;;;5060278;28;20049;-79
2022/01/06 01:20:26;;;;;;;160.07;74.72;;;;;;;;;;5060868;28;20053;-80
2022/01/06 01:23:12;;;;;;;140.35;71.72;;;;;;;;;;5060611;28;20464;-79
2022/01/06 01:25:57;;;;;;;119.85;58.25;;;;;;;;;;5060177;28;20044;-80
2022/01/06 01:28:45;;;;;;;127.25;57.20;;;;;;;;;;5060484;28;20044;-80
2022/01/06 01:31:36;;;;;;;109.20;53.13;;;;;;;;;;5053395;28;20041;-80
2022/01/06 01:34:25;;;;;;;97.93;48.50;;;;;;;;;;5060375;28;20049;-79
2022/01/06 01:37:10;;;;;;;100.93;47.80;;;;;;;;;;5060579;28;20053;-79
2022/01/06 01:39:57;;;;;;;99.50;49.13;;;;;;;;;;5054464;28;20045;-80
2022/01/06 01:42:42;;;;;;;105.22;48.40;;;;;;;;;;5053682;28;20037;-79
2022/01/06 01:45:30;;;;;;;86.22;43.10;;;;;;;;;;5060055;28;20049;-79
2022/01/06 01:48:24;;;;;;;83.65;41.33;;;;;;;;;;5045428;28;20049;-80
2022/01/06 01:51:10;;;;;;;100.43;44.00;;;;;;;;;;5045623;28;20041;-80
2022/01/06 01:53:56;;;;;;;62.83;33.60;;;;;;;;;;5059820;28;20045;-80
2022/01/06 01:56:42;;;;;;;35.47;20.58;;;;;;;;;;5053542;28;20049;-80
2022/01/06 01:59:28;;;;;;;32.33;19.13;;;;;;;;;;5059669;28;20045;-80
2022/01/06 02:02:13;;;;;;;38.58;21.40;;;;;;;;;;5053510;28;20053;-80
2022/01/06 02:05:00;;;;;;;29.70;17.70;;;;;;;;;;5053447;28;20044;-79
2022/01/06 02:07:45;;;;;;;39.58;21.73;;;;;;;;;;5059723;28;20395;-81
2022/01/06 02:10:30;;;;;;;24.25;15.02;;;;;;;;;;5045391;28;20472;-80
2022/01/06 02:13:16;;;;;;;20.45;14.20;;;;;;;;;;5059482;28;20049;-80
2022/01/06 02:16:02;;;;;;;17.10;12.10;;;;;;;;;;5060321;28;20412;-79
2022/01/06 02:18:49;;;;;;;20.40;14.07;;;;;;;;;;5059866;28;20396;-79
2022/01/06 02:21:39;;;;;;;23.92;14.88;;;;;;;;;;5059962;28;20041;-79
2022/01/06 02:24:25;;;;;;;30.83;20.90;;;;;;;;;;5056705;28;20148;-79
2022/01/06 02:27:11;;;;;;;29.10;18.02;;;;;;;;;;5048665;28;20053;-80
2022/01/06 02:29:56;;;;;;;28.70;16.73;;;;;;;;;;5063828;28;20049;-80
2022/01/06 02:32:43;;;;;;;25.65;15.57;;;;;;;;;;5057318;28;20049;-79
2022/01/06 02:35:29;;;;;;;29.35;16.58;;;;;;;;;;5063429;28;20053;-79
2022/01/06 02:38:15;;;;;;;32.28;18.75;;;;;;;;;;5062256;28;20053;-80
2022/01/06 02:41:01;;;;;;;29.30;17.98;;;;;;;;;;5063258;28;20048;-80
2022/01/06 02:43:52;;;;;;;30.42;17.13;;;;;;;;;;5063835;28;20049;-79
2022/01/06 02:46:40;;;;;;;23.42;14.10;;;;;;;;;;5063949;28;20048;-80
2022/01/06 02:49:24;;;;;;;25.33;16.08;;;;;;;;;;5064639;28;20045;-80
2022/01/06 02:52:10;;;;;;;24.15;13.70;;;;;;;;;;5058271;28;20040;-79
2022/01/06 02:54:55;;;;;;;22.23;13.07;;;;;;;;;;5063779;28;20052;-78
2022/01/06 02:57:42;;;;;;;14.98;10.20;;;;;;;;;;5064235;28;20049;-80
2022/01/06 03:00:28;;;;;;;18.20;11.63;;;;;;;;;;5063200;28;20053;-80
2022/01/06 03:03:13;;;;;;;18.65;11.23;;;;;;;;;;5056051;28;20044;-80
2022/01/06 03:05:59;;;;;;;18.58;11.18;;;;;;;;;;5063402;28;20049;-80
2022/01/06 03:08:44;;;;;;;14.95;10.23;;;;;;;;;;5062726;28;20053;-79
2022/01/06 03:11:30;;;;;;;16.23;10.32;;;;;;;;;;5063039;28;20049;-80
2022/01/06 03:14:16;;;;;;;15.13;9.55;;;;;;;;;;5062959;28;20488;-80
2022/01/06 03:17:01;;;;;;;15.57;11.02;;;;;;;;;;5056002;28;20049;-80
2022/01/06 03:19:47;;;;;;;17.08;11.05;;;;;;;;;;5062864;28;20037;-81
2022/01/06 03:22:32;;;;;;;19.30;11.77;;;;;;;;;;5064451;28;20053;-80
2022/01/06 03:25:19;;;;;;;17.85;11.82;;;;;;;;;;5066771;28;20460;-81
2022/01/06 03:28:05;;;;;;;22.50;15.57;;;;;;;;;;5064923;28;20045;-80
2022/01/06 03:30:50;;;;;;;18.45;12.20;;;;;;;;;;5057617;28;20045;-81
2022/01/06 03:33:36;;;;;;;16.33;10.48;;;;;;;;;;5065784;28;20053;-81
2022/01/06 03:36:21;;;;;;;15.05;10.05;;;;;;;;;;5055298;28;20044;-79
2022/01/06 03:39:07;;;;;;;18.05;10.85;;;;;;;;;;5058236;28;20053;-79
2022/01/06 03:41:53;;;;;;;17.70;10.85;;;;;;;;;;5062509;28;20048;-79
2022/01/06 03:44:39;;;;;;;17.15;10.55;;;;;;;;;;5062058;28;20044;-79
2022/01/06 03:47:24;;;;;;;18.52;10.93;;;;;;;;;;5055876;28;20476;-79
2022/01/06 03:50:12;;;;;;;20.02;11.48;;;;;;;;;;5062258;28;20464;-79
2022/01/06 03:52:58;;;;;;;17.95;11.27;;;;;;;;;;5061972;28;20049;-80
2022/01/06 03:55:43;;;;;;;19.10;11.25;;;;;;;;;;5062133;28;20053;-78
2022/01/06 03:58:29;;;;;;;17.58;11.30;;;;;;;;;;5061665;28;20041;-79
2022/01/06 04:01:16;;;;;;;15.50;10.85;;;;;;;;;;5040590;28;20045;-79
2022/01/06 04:04:01;;;;;;;18.10;11.70;;;;;;;;;;5062056;28;20472;-79
2022/01/06 04:06:47;;;;;;;17.77;11.35;;;;;;;;;;5061414;28;20045;-80
2022/01/06 04:09:32;;;;;;;20.42;12.75;;;;;;;;;;5055335;28;20052;-80
2022/01/06 04:12:18;;;;;;;18.70;13.38;;;;;;;;;;5054626;28;20504;-80
2022/01/06 04:15:09;;;;;;;19.73;12.52;;;;;;;;;;5062021;28;20468;-80
2022/01/06 04:17:54;;;;;;;18.77;11.48;;;;;;;;;;5061597;28;20045;-79
2022/01/06 04:20:40;;;;;;;16.83;11.32;;;;;;;;;;5061403;28;20049;-80
2022/01/06 04:23:25;;;;;;;20.98;11.50;;;;;;;;;;5055374;28;20396;-79
2022/01/06 04:26:11;;;;;;;14.77;10.18;;;;;;;;;;5054536;28;20071;-80
2022/01/06 04:28:56;;;;;;;11.93;8.40;;;;;;;;;;5061549;28;20049;-80
2022/01/06 04:31:42;;;;;;;13.93;10.38;;;;;;;;;;5054600;28;20049;-79
2022/01/06 04:34:28;;;;;;;13.80;9.55;;;;;;;;;;5060767;28;20044;-80
2022/01/06 04:37:13;;;;;;;13.90;9.23;;;;;;;;;;5050207;28;20049;-79
2022/01/06 04:39:59;;;;;;;19.55;11.75;;;;;;;;;;5019515;28;20053;-80
2022/01/06 04:42:45;;;;;;;13.50;9.80;;;;;;;;;;5041397;28;20050;-79
2022/01/06 04:45:30;;;;;;;16.40;10.82;;;;;;;;;;5041096;28;20476;-79
2022/01/06 04:48:16;;;;;;;15.18;10.00;;;;;;;;;;5033976;28;20045;-81
2022/01/06 04:51:01;;;;;;;16.63;11.18;;;;;;;;;;5031386;28;20392;-81
2022/01/06 04:53:47;;;;;;;16.08;11.13;;;;;;;;;;5040600;28;20046;-81
2022/01/06 04:56:36;;;;;;;15.82;10.57;;;;;;;;;;5051473;28;20049;-81
2022/01/06 04:59:21;;;;;;;15.80;10.40;;;;;;;;;;5053986;28;20045;-80
2022/01/06 05:02:06;;;;;;;14.20;9.77;;;;;;;;;;5060344;28;20041;-82
2022/01/06 05:04:51;;;;;;;19.92;13.05;;;;;;;;;;5060919;28;20048;-81
2022/01/06 05:07:37;;;;;;;19.98;12.02;;;;;;;;;;5060829;28;20053;-81
2022/01/06 05:10:22;;;;;;;16.27;10.73;;;;;;;;;;5040674;28;20079;-81
2022/01/06 05:13:08;;;;;;;14.43;10.23;;;;;;;;;;5040838;28;20508;-81
2022/01/06 05:15:53;;;;;;;18.08;10.80;;;;;;;;;;5033518;28;20041;-81
2022/01/06 05:18:39;;;;;;;14.45;10.23;;;;;;;;;;5040793;28;20484;-81
2022/01/06 05:21:29;;;;;;;22.90;14.43;;;;;;;;;;5033783;28;20049;-80
2022/01/06 05:24:16;;;;;;;23.45;13.90;;;;;;;;;;5049647;28;20400;-82
2022/01/06 05:27:02;;;;;;;24.50;12.40;;;;;;;;;;5033771;28;20041;-80
2022/01/06 05:29:47;;;;;;;23.95;14.23;;;;;;;;;;5045254;28;20049;-81
2022/01/06 05:32:33;;;;;;;30.42;15.82;;;;;;;;;;5056551;28;20057;-81
2022/01/06 05:35:18;;;;;;;25.20;14.45;;;;;;;;;;5053645;28;20053;-81
2022/01/06 05:38:04;;;;;;;28.73;14.85;;;;;;;;;;5055809;28;20065;-81
2022/01/06 05:40:49;;;;;;;23.70;13.48;;;;;;;;;;5052289;28;20037;-81
2022/01/06 05:43:35;;;;;;;24.90;14.25;;;;;;;;;;5051964;28;20476;-81
2022/01/06 05:46:21;;;;;;;25.75;14.80;;;;;;;;;;5061857;28;20052;-79
2022/01/06 05:49:06;;;;;;;14.60;9.27;;;;;;;;;;5055297;28;20041;-80
2022/01/06 05:51:52;;;;;;;16.52;12.25;;;;;;;;;;5039829;28;20053;-81
2022/01/06 05:54:37;;;;;;;15.43;11.20;;;;;;;;;;5033654;28;20049;-81
2022/01/06 05:57:22;;;;;;;17.23;12.13;;;;;;;;;;5039866;28;20053;-81
2022/01/06 06:00:09;;;;;;;19.25;12.75;;;;;;;;;;5044221;28;20042;-81
2022/01/06 06:02:54;;;;;;;21.63;12.40;;;;;;;;;;5029058;28;20053;-81
2022/01/06 06:05:41;;;;;;;18.88;12.35;;;;;;;;;;5043894;28;20053;-80
2022/01/06 06:08:27;;;;;;;20.77;12.55;;;;;;;;;;5023110;28;20441;-80
2022/01/06 06:11:12;;;;;;;17.45;10.80;;;;;;;;;;5046542;28;20092;-81
2022/01/06 06:13:58;;;;;;;14.68;10.40;;;;;;;;;;5048995;28;20049;-81
2022/01/06 06:16:43;;;;;;;9.57;6.45;;;;;;;;;;5057601;28;20053;-81
2022/01/06 06:19:29;;;;;;;13.85;9.15;;;;;;;;;;5062898;28;20045;-81
2022/01/06 06:22:14;;;;;;;14.55;9.88;;;;;;;;;;5045142;28;20040;-82
2022/01/06 06:25:00;;;;;;;17.60;11.65;;;;;;;;;;5063036;28;20045;-82
2022/01/06 06:27:46;;;;;;;19.17;13.25;;;;;;;;;;5057041;28;20044;-81
2022/01/06 06:30:32;;;;;;;14.10;9.55;;;;;;;;;;5063428;28;20049;-81
2022/01/06 06:33:18;;;;;;;15.82;10.48;;;;;;;;;;5046658;28;20049;-81
2022/01/06 06:36:04;;;;;;;15.52;10.57;;;;;;;;;;5056382;28;20041;-80
2022/01/06 06:38:49;;;;;;;18.95;14.68;;;;;;;;;;5044570;28;20057;-80
2022/01/06 06:41:42;;;;;;;12.93;8.63;;;;;;;;;;5035035;28;20395;-80
2022/01/06 06:44:27;;;;;;;120.80;87.85;;;;;;;;;;5062108;28;20644;-79
2022/01/06 06:47:12;;;;;;;21.05;13.80;;;;;;;;;;5054710;28;20040;-80
2022/01/06 06:49:59;;;;;;;445.48;281.00;;;;;;;;;;5055674;28;20049;-82
2022/01/06 06:52:45;;;;;;;150.75;83.15;;;;;;;;;;5055757;28;20037;-82
2022/01/06 06:55:30;;;;;;;9.98;7.07;;;;;;;;;;5048296;28;20479;-83
2022/01/06 06:58:19;;;;;;;70.20;44.30;;;;;;;;;;5056502;28;20041;-82
2022/01/06 07:01:05;;;;;;;22.80;17.17;;;;;;;;;;5063527;28;20049;-81
2022/01/06 07:03:50;;;;;;;7.30;5.82;;;;;;;;;;5063085;28;20045;-82
2022/01/06 07:06:36;;;;;;;6.13;4.38;;;;;;;;;;5056136;28;20056;-82
2022/01/06 07:09:21;;;;;;;11.82;8.38;;;;;;;;;;5042440;28;20029;-81
2022/01/06 07:12:07;;;;;;;15.48;10.60;;;;;;;;;;5042230;28;20049;-82
2022/01/06 07:14:53;;;;;;;6.55;5.40;;;;;;;;;;5039464;28;20045;-79
2022/01/06 07:17:38;;;;;;;15.07;9.55;;;;;;;;;;5038308;28;20049;-81
2022/01/06 07:20:31;;;;;;;11.52;6.65;;;;;;;;;;5036259;28;20385;-81
2022/01/06 07:23:17;;;;;;;10.75;4.43;;;;;;;;;;5021067;28;20049;-81
2022/01/06 07:26:03;;;;;;;23.50;10.68;;;;;;;;;;5042543;28;20213;-80
2022/01/06 07:28:48;;;;;;;12.10;9.07;;;;;;;;;;5042463;28;20480;-81
2022/01/06 07:31:36;;;;;;;14.02;8.93;;;;;;;;;;5035716;28;20396;-80
2022/01/06 07:34:26;;;;;;;19.35;10.75;;;;;;;;;;5021459;28;20500;-80
2022/01/06 07:37:11;;;;;;;31.30;17.52;;;;;;;;;;5014124;28;20049;-81
2022/01/06 07:39:57;;;;;;;17.73;9.63;;;;;;;;;;5041034;28;20045;-81
2022/01/06 07:42:43;;;;;;;20.48;12.80;;;;;;;;;;5047480;28;20045;-81
2022/01/06 07:45:28;;;;;;;24.75;14.13;;;;;;;;;;5038269;28;20041;-79
2022/01/06 07:48:18;;;;;;;18.02;10.93;;;;;;;;;;5049742;28;20049;-81
2022/01/06 07:51:04;;;;;;;11.52;8.65;;;;;;;;;;5046411;28;20489;-80
2022/01/06 07:53:48;;;;;;;12.90;8.90;;;;;;;;;;5041785;28;20041;-81
2022/01/06 07:56:34;;;;;;;40.97;19.85;;;;;;;;;;5054809;28;20049;-81
2022/01/06 07:59:20;;;;;;;4.53;3.65;;;;;;;;;;5042693;28;20050;-81
2022/01/06 08:02:07;;;;;;;27.60;13.13;;;;;;;;;;5054832;28;20052;-79
2022/01/06 08:04:53;;;;;;;27.55;15.25;;;;;;;;;;5054832;28;20057;-80
2022/01/06 08:07:39;;;;;;;37.33;18.95;;;;;;;;;;5053891;28;20041;-80
2022/01/06 08:10:24;;;;;;;21.27;10.60;;;;;;;;;;5056214;28;20053;-78
2022/01/06 08:13:10;;;;;;;21.65;12.00;;;;;;;;;;5059502;28;20045;-79
2022/01/06 08:15:55;;;;;;;15.88;9.15;;;;;;;;;;5060140;28;20495;-84
2022/01/06 08:18:41;;;;;;;31.88;16.15;;;;;;;;;;5046646;28;20037;-79
2022/01/06 08:21:26;;;;;;;17.85;10.63;;;;;;;;;;5035700;28;20441;-80
2022/01/06 08:24:11;;;;;;;14.07;7.15;;;;;;;;;;5054130;28;20085;-80
2022/01/06 08:26:56;;;;;;;16.13;7.65;;;;;;;;;;5061862;28;20041;-80
2022/01/06 08:29:42;;;;;;;17.38;7.82;;;;;;;;;;5054710;28;20045;-79
2022/01/06 08:32:28;;;;;;;13.65;7.55;;;;;;;;;;5053389;28;20053;-79
2022/01/06 08:35:13;;;;;;;13.05;7.65;;;;;;;;;;5054027;28;20041;-81
2022/01/06 08:37:59;;;;;;;19.73;10.32;;;;;;;;;;5064394;28;20049;-79
2022/01/06 08:40:45;;;;;;;17.52;9.25;;;;;;;;;;5058521;28;20041;-81
2022/01/06 08:43:30;;;;;;;14.25;7.85;;;;;;;;;;5035198;28;20041;-80
2022/01/06 08:46:16;;;;;;;8.43;6.22;;;;;;;;;;5040682;28;20045;-83
2022/01/06 08:49:04;;;;;;;14.90;8.48;;;;;;;;;;5041473;28;20057;-81
2022/01/06 08:51:49;;;;;;;21.58;10.93;;;;;;;;;;5048701;28;20053;-79
2022/01/06 08:54:35;;;;;;;15.70;8.02;;;;;;;;;;5040891;28;20404;-80
2022/01/06 08:57:21;;;;;;;21.58;12.88;;;;;;;;;;5043599;28;20045;-79
2022/01/06 09:00:10;;;;;;;20.98;11.18;;;;;;;;;;5033408;28;20049;-81
2022/01/06 09:02:55;;;;;;;19.33;9.95;;;;;;;;;;5048275;28;20040;-82
2022/01/06 09:05:41;;;;;;;22.75;11.02;;;;;;;;;;5053848;28;20040;-81
2022/01/06 09:08:26;;;;;;;6.10;4.45;;;;;;;;;;5060443;28;20049;-80
2022/01/06 09:11:12;;;;;;;11.60;5.47;;;;;;;;;;5054167;28;20396;-80
2022/01/06 09:13:58;;;;;;;18.30;10.30;;;;;;;;;;5055007;28;20420;-80
2022/01/06 09:16:43;;;;;;;13.77;8.30;;;;;;;;;;5033825;28;20037;-81
2022/01/06 09:19:29;;;;;;;23.45;12.93;;;;;;;;;;5036036;28;20049;-82
2022/01/06 09:22:14;;;;;;;20.35;12.23;;;;;;;;;;5058443;28;20053;-80
2022/01/06 09:25:00;;;;;;;25.80;14.70;;;;;;;;;;5060243;28;20052;-80
2022/01/06 09:27:46;;;;;;;35.53;17.90;;;;;;;;;;5051911;28;20044;-81
2022/01/06 09:30:31;;;;;;;17.77;9.18;;;;;;;;;;5030221;28;20049;-80
2022/01/06 09:33:18;;;;;;;12.68;7.85;;;;;;;;;;5045682;28;20504;-80
2022/01/06 09:36:04;;;;;;;18.67;10.65;;;;;;;;;;5048486;28;20041;-80
2022/01/06 09:38:49;;;;;;;7.18;4.45;;;;;;;;;;5054452;28;20053;-80
2022/01/06 09:41:35;;;;;;;22.35;10.85;;;;;;;;;;5039244;28;20049;-80
2022/01/06 09:44:21;;;;;;;15.07;8.98;;;;;;;;;;5057893;28;20391;-78
2022/01/06 09:47:10;;;;;;;10.88;7.18;;;;;;;;;;5053261;28;20048;-80
2022/01/06 09:49:57;;;;;;;14.55;8.93;;;;;;;;;;5041950;28;20049;-78
2022/01/06 09:52:42;;;;;;;16.77;9.55;;;;;;;;;;5037684;28;20045;-79
2022/01/06 09:55:27;;;;;;;11.75;5.82;;;;;;;;;;5058468;28;20053;-81
2022/01/06 09:58:22;;;;;;;21.83;9.45;;;;;;;;;;5047394;28;20057;-80
2022/01/06 10:01:07;;;;;;;30.23;16.05;;;;;;;;;;5034083;28;20037;-80
2022/01/06 10:03:53;;;;;;;8.40;5.90;;;;;;;;;;5044324;28;20399;-80
2022/01/06 10:06:38;;;;;;;30.10;16.25;;;;;;;;;;5059780;28;20049;-81
2022/01/06 10:09:26;;;;;;;17.58;10.07;;;;;;;;;;5042077;28;20053;-79
2022/01/06 10:12:13;;;;;;;21.08;10.63;;;;;;;;;;5039928;28;20042;-79
2022/01/06 10:15:00;;;;;;;20.60;13.27;;;;;;;;;;5054838;28;20041;-81
2022/01/06 10:17:46;;;;;;;23.75;15.10;;;;;;;;;;5040053;28;20049;-81
2022/01/06 10:20:31;;;;;;;29.45;15.95;;;;;;;;;;5039656;28;20045;-81
2022/01/06 10:23:17;;;;;;;28.08;14.82;;;;;;;;;;5033039;28;20049;-81
2022/01/06 10:26:11;;;;;;;24.83;14.20;;;;;;;;;;5032785;28;20049;-80
2022/01/06 10:28:57;;;;;;;12.65;8.35;;;;;;;;;;5040110;28;20492;-82
2022/01/06 10:31:42;;;;;;;16.90;9.98;;;;;;;;;;5035840;28;20049;-80
2022/01/06 10:34:32;;;;;;;32.58;15.25;;;;;;;;;;5025685;28;20054;-80
2022/01/06 10:37:18;;;;;;;37.83;20.48;;;;;;;;;;5039447;28;20053;-79
2022/01/06 10:40:08;;;;;;;28.30;14.10;;;;;;;;;;5044927;28;20052;-80
2022/01/06 10:42:57;;;;;;;17.85;8.40;;;;;;;;;;5057978;28;20045;-79
2022/01/06 10:45:43;;;;;;;16.73;9.63;;;;;;;;;;5062332;28;20416;-82
2022/01/06 10:48:29;;;;;;;18.38;10.45;;;;;;;;;;5054780;28;20041;-81
2022/01/06 10:51:14;;;;;;;23.73;12.27;;;;;;;;;;5040404;28;20041;-81
2022/01/06 10:54:10;;;;;;;51.10;22.95;;;;;;;;;;5061169;28;20045;-81
2022/01/06 10:57:12;;;;;;;46.30;20.38;;;;;;;;;;5047888;28;20052;-83
2022/01/06 11:00:08;;;;;;;39.10;19.30;;;;;;;;;;5049373;28;20032;-83
2022/01/06 11:03:14;;;;;;;23.92;12.32;;;;;;;;;;5056489;28;20053;-82
2022/01/06 11:06:02;;;;;;;10.93;7.75;;;;;;;;;;5040690;28;20049;-82
2022/01/06 11:08:48;;;;;;;24.02;14.38;;;;;;;;;;5041276;28;20045;-82
2022/01/06 11:12:34;;;;;;;22.15;12.85;;;;;;;;;;5034015;28;20419;-82
2022/01/06 11:14:48;;;;;;;17.20;11.07;;;;;;;;;;5036545;28;20041;-81
2022/01/06 11:17:33;;;;;;;18.67;10.88;;;;;;;;;;5035092;28;20041;-85
2022/01/06 11:20:25;;;;;;;11.00;6.85;;;;;;;;;;5051578;28;20037;-82
2022/01/06 11:23:20;;;;;;;12.57;6.68;;;;;;;;;;5059296;28;20049;-81
2022/01/06 11:26:11;;;;;;;16.33;9.65;;;;;;;;;;5067083;28;20447;-82
2022/01/06 11:28:59;;;;;;;10.07;5.80;;;;;;;;;;5065680;28;20484;-79
2022/01/06 11:31:44;;;;;;;5.80;4.50;;;;;;;;;;5067804;28;20455;-82
2022/01/06 11:34:36;;;;;;;8.35;5.47;;;;;;;;;;5058375;28;20045;-82
2022/01/06 11:37:22;;;;;;;10.30;6.25;;;;;;;;;;5062360;28;20053;-83
2022/01/06 11:40:08;;;;;;;12.65;8.57;;;;;;;;;;5055269;28;20044;-80
2022/01/06 11:42:55;;;;;;;23.05;12.88;;;;;;;;;;5055440;28;20400;-82
2022/01/06 11:45:40;;;;;;;14.68;8.73;;;;;;;;;;5055721;28;20045;-80
2022/01/06 11:48:25;;;;;;;14.93;8.75;;;;;;;;;;5055044;28;20041;-81
2022/01/06 11:51:25;;;;;;;28.23;17.95;;;;;;;;;;5040296;28;20053;-81
2022/01/06 11:54:17;;;;;;;16.33;8.52;;;;;;;;;;5061597;28;20492;-82
2022/01/06 11:57:03;;;;;;;16.27;9.95;;;;;;;;;;5054242;28;20053;-82
2022/01/06 12:00:31;;;;;;;15.45;9.77;;;;;;;;;;5054821;28;20045;-79
2022/01/06 12:03:58;;;;;;;28.58;14.40;;;;;;;;;;4954510;28;20446;-79
2022/01/06 12:07:11;;;;;;;16.13;10.43;;;;;;;;;;4942804;29;20051;-80
2022/01/06 12:10:09;;;;;;;11.50;7.50;;;;;;;;;;4947538;28;20043;-79
2022/01/06 12:22:12;;;;;;;20.05;10.70;;;;;;;;;;5051995;28;20411;-80
2022/01/06 12:25:36;;;;;;;20.10;11.75;;;;;;;;;;5012676;28;20473;-79
2022/01/06 12:28:23;;;;;;;25.05;13.82;;;;;;;;;;5026330;28;20045;-79
2022/01/06 12:31:26;;;;;;;16.60;9.90;;;;;;;;;;5013072;28;20496;-80
2022/01/06 12:35:00;;;;;;;46.65;30.25;;;;;;;;;;5020504;28;20048;-79
2022/01/06 12:51:57;;;;;;;13.02;8.00;;;;;;;;;;5046335;28;20049;-80
2022/01/06 13:11:47;;;;;;;15.02;8.75;;;;;;;;;;5034124;28;20041;-80
2022/01/06 13:14:52;;;;;;;19.25;11.60;;;;;;;;;;5011099;28;20057;-80
2022/01/06 13:17:43;;;;;;;20.10;10.80;;;;;;;;;;5030277;28;20041;-78
2022/01/06 13:20:36;;;;;;;22.75;13.88;;;;;;;;;;5032815;28;20045;-79
2022/01/06 13:26:48;;;;;;;24.27;13.90;;;;;;;;;;5041367;28;20040;-79
2022/01/06 13:30:39;;;;;;;;;;;;;;;;;;;;;
2022/01/06 13:38:24;;;;;;;31.42;18.10;;;;;;;;;;5059211;28;20044;-79
2022/01/06 13:41:09;;;;;;;57.05;29.55;;;;;;;;;;5016305;28;20041;-80
2022/01/06 13:44:07;;;;;;;44.25;25.60;;;;;;;;;;5020815;28;20041;-78
2022/01/06 13:47:16;;;;;;;46.17;23.58;;;;;;;;;;5019000;28;20053;-80
2022/01/06 13:53:36;;;;;;;46.83;22.95;;;;;;;;;;5023267;28;20041;-81
2022/01/06 14:01:17;;;;;;;25.85;13.75;;;;;;;;;;5038597;28;20408;-79
2022/01/06 14:08:45;;;;;;;31.85;17.48;;;;;;;;;;5050067;23;20053;-80
2022/01/06 14:11:30;;;;;;;47.20;23.83;;;;;;;;;;5058478;28;20049;-80
2022/01/06 14:14:15;;;;;;;48.65;25.92;;;;;;;;;;5059429;28;20048;-81
2022/01/06 14:17:01;;;;;;;28.50;15.27;;;;;;;;;;5045028;28;20049;-81
2022/01/06 14:19:47;;;;;;;39.25;20.65;;;;;;;;;;5065955;28;20045;-82
2022/01/06 14:22:32;;;;;;;26.30;15.75;;;;;;;;;;5056954;28;20945;-81
2022/01/06 14:25:18;;;;;;;24.05;14.13;;;;;;;;;;5056908;28;20486;-83
2022/01/06 14:28:06;;;;;;;25.30;16.00;;;;;;;;;;5057538;28;20049;-78
2022/01/06 14:30:51;;;;;;;30.25;18.00;;;;;;;;;;5056188;28;20045;-78
2022/01/06 14:33:38;;;;;;;30.00;17.02;;;;;;;;;;5055930;28;20490;-78
2022/01/06 14:36:42;;;;;;;25.85;15.77;;;;;;;;;;5056829;28;20048;-79
2022/01/06 14:39:29;;;;;;;22.50;14.18;;;;;;;;;;5057699;28;20148;-80
2022/01/06 14:42:14;;;;;;;19.10;11.60;;;;;;;;;;5058156;28;20045;-78
2022/01/06 14:45:05;;;;;;;28.83;15.40;;;;;;;;;;5056026;28;20041;-81
2022/01/06 14:47:50;;;;;;;32.72;19.85;;;;;;;;;;5056461;28;20402;-82
2022/01/06 14:50:36;;;;;;;56.88;33.28;;;;;;;;;;5047628;28;20048;-81
2022/01/06 14:53:21;;;;;;;62.92;35.50;;;;;;;;;;5055520;28;20484;-81
2022/01/06 14:56:08;;;;;;;49.20;26.00;;;;;;;;;;5056422;28;20049;-81
2022/01/06 14:58:53;;;;;;;43.97;24.52;;;;;;;;;;5055871;28;20041;-81
2022/01/06 15:01:38;;;;;;;36.28;21.33;;;;;;;;;;5055571;28;20045;-82
2022/01/06 15:04:26;;;;;;;37.28;23.65;;;;;;;;;;5056072;28;20049;-79
2022/01/06 15:07:11;;;;;;;48.13;26.13;;;;;;;;;;5040177;28;20053;-78
2022/01/06 15:09:57;;;;;;;33.70;20.13;;;;;;;;;;5062873;28;20048;-78
2022/01/06 15:12:43;;;;;;;31.48;16.58;;;;;;;;;;5055522;28;20414;-79
2022/01/06 15:15:28;;;;;;;25.23;15.50;;;;;;;;;;5056014;28;20045;-80
2022/01/06 15:18:14;;;;;;;24.80;13.50;;;;;;;;;;5056157;28;20045;-79
2022/01/06 15:21:02;;;;;;;36.38;18.02;;;;;;;;;;5055113;28;20049;-79
2022/01/06 15:23:47;;;;;;;42.78;21.55;;;;;;;;;;5033607;28;20064;-79
2022/01/06 15:26:34;;;;;;;96.05;37.10;;;;;;;;;;5055120;28;20053;-78
2022/01/06 15:29:19;;;;;;;63.70;30.10;;;;;;;;;;5055431;28;20041;-79
2022/01/06 15:32:05;;;;;;;71.78;33.05;;;;;;;;;;5055859;28;20470;-78
2022/01/06 15:34:51;;;;;;;72.68;34.95;;;;;;;;;;5055049;28;20041;-79
2022/01/06 15:37:37;;;;;;;67.60;34.00;;;;;;;;;;5055655;28;20049;-79
2022/01/06 15:40:24;;;;;;;76.65;36.47;;;;;;;;;;5055421;28;20037;-78
2022/01/06 15:43:09;;;;;;;58.95;32.90;;;;;;;;;;5055264;28;20487;-79
2022/01/06 15:45:56;;;;;;;74.22;38.05;;;;;;;;;;5054969;28;20053;-79
2022/01/06 15:48:42;;;;;;;57.38;30.50;;;;;;;;;;5054825;28;20070;-78
2022/01/06 15:51:31;;;;;;;47.65;28.73;;;;;;;;;;5055783;28;20053;-77
2022/01/06 15:54:18;;;;;;;46.67;27.27;;;;;;;;;;5055492;28;20049;-78
2022/01/06 15:57:03;;;;;;;57.88;30.65;;;;;;;;;;5061566;28;20048;-77
2022/01/06 15:59:57;;;;;;;50.25;32.15;;;;;;;;;;5054949;28;20045;-78
2022/01/06 16:05:48;;;;;;;59.92;35.00;;;;;;;;;;5055276;28;20065;-77
2022/01/06 16:08:34;;;;;;;75.43;37.92;;;;;;;;;;5054473;28;20049;-77
2022/01/06 16:11:20;;;;;;;72.10;37.60;;;;;;;;;;5060993;28;20041;-77
2022/01/06 16:14:04;;;;;;;48.88;29.77;;;;;;;;;;5054517;28;20045;-77
2022/01/06 16:16:52;;;;;;;51.85;30.17;;;;;;;;;;5054635;28;20478;-77
2022/01/06 16:19:37;;;;;;;63.03;34.58;;;;;;;;;;5054855;28;20048;-77
2022/01/06 16:22:22;;;;;;;69.55;37.65;;;;;;;;;;5054615;28;20037;-77
2022/01/06 16:25:09;;;;;;;78.45;43.75;;;;;;;;;;5053947;28;20045;-77
2022/01/06 16:27:54;;;;;;;64.13;37.67;;;;;;;;;;5061308;28;20049;-80
2022/01/06 16:30:47;;;;;;;60.92;33.28;;;;;;;;;;5069152;28;20044;-77
2022/01/06 16:33:34;;;;;;;75.13;38.85;;;;;;;;;;5054524;28;20052;-77
2022/01/06 16:36:19;;;;;;;92.05;45.72;;;;;;;;;;5054586;28;20045;-77
2022/01/06 16:39:07;;;;;;;59.92;34.33;;;;;;;;;;5052910;28;20044;-77
2022/01/06 16:41:52;;;;;;;43.95;26.70;;;;;;;;;;5045082;28;20490;-79
2022/01/06 16:44:38;;;;;;;70.53;37.42;;;;;;;;;;5054151;28;20064;-77
2022/01/06 16:47:25;;;;;;;72.68;37.83;;;;;;;;;;5060251;28;20044;-77
2022/01/06 16:50:11;;;;;;;87.28;45.53;;;;;;;;;;5061207;28;20049;-77
2022/01/06 16:52:57;;;;;;;120.90;57.00;;;;;;;;;;5053551;28;20068;-77
2022/01/06 16:55:43;;;;;;;141.82;59.17;;;;;;;;;;5054233;28;20033;-77
2022/01/06 16:58:28;;;;;;;104.22;51.97;;;;;;;;;;5054082;28;20041;-77
2022/01/06 17:01:15;;;;;;;105.07;49.20;;;;;;;;;;5060128;28;20053;-77
2022/01/06 17:04:02;;;;;;;122.32;59.30;;;;;;;;;;5060736;28;20041;-77
2022/01/06 17:06:48;;;;;;;101.25;50.42;;;;;;;;;;5052894;28;20060;-77
2022/01/06 17:09:33;;;;;;;163.70;72.18;;;;;;;;;;5053489;28;20033;-78
2022/01/06 17:12:19;;;;;;;130.98;59.60;;;;;;;;;;5053643;28;20057;-78
2022/01/06 17:15:06;;;;;;;71.65;34.97;;;;;;;;;;5053441;28;20482;-78
2022/01/06 17:17:52;;;;;;;74.07;40.20;;;;;;;;;;5062555;28;20049;-77
2022/01/06 17:20:41;;;;;;;79.43;38.97;;;;;;;;;;5061027;28;20037;-78
2022/01/06 17:23:26;;;;;;;76.13;39.13;;;;;;;;;;5033842;28;20041;-76
2022/01/06 17:26:15;;;;;;;79.78;39.63;;;;;;;;;;5060863;28;20045;-77
2022/01/06 17:29:05;;;;;;;56.60;30.05;;;;;;;;;;5053643;28;20057;-77